Sea Victory — 3FFY3 — position and weather

sailwx.info

Track history (hours):
 
Tides and Currents Weather Stations Pressure Air Temp Water Temp Dewpoint Dewpoint Depression Visibility Wind Speed Wind Dir Waves Ship Positions

Sea Victory

Last reported at 2018-May-18 10:41 UTC. Time now 2018-Jun-20 22:55 UTC.
Position S 24°17' W 046°01'.
Warning: this ship's position is 33 days out of date.

Length 225 m; draft 13.1 m.

Type: Cargo ship. MMSI: 370090000.

Date/timePositionNaut miles runAvg speedWind from/ knotsBaromVisibWave heightAir tempDewpointWater temp
2018-May-18 10:41S 24°17' W 046°01'211.4
2018-May-18 10:29S 24°16' W 046°03'611.4
2018-May-18 10:00S 24°15' W 046°09'611.3
2018-May-18 09:30S 24°15' W 046°16'5 9.5
2018-May-18 09:01S 24°14' W 046°21'510.8
2018-May-18 08:31S 24°09' W 046°22'5 9.3
2018-May-18 08:00S 24°05' W 046°22'4 8.4
2018-May-18 07:29S 24°00' W 046°20'  
2018-May-16 03:19S 23°59' W 046°17'1 2.7
2018-May-16 02:55S 23°60' W 046°18'3 6.8
2018-May-16 02:30S 24°01' W 046°21'3 5.1
2018-May-16 02:00S 24°03' W 046°22'2 3.5
2018-May-16 01:30S 24°03' W 046°21'2 4.9
2018-May-16 01:00S 24°05' W 046°22'0 0.3
2018-May-16 00:26S 24°05' W 046°22'0 0.0
2018-May-15 23:59S 24°05' W 046°22'0 0.0
2018-May-15 23:29S 24°05' W 046°22'0 0.0
2018-May-15 22:59S 24°05' W 046°22'0 0.0
2018-May-15 22:29S 24°05' W 046°22'0 0.0
2018-May-15 21:59S 24°05' W 046°22'0 0.0
2018-May-15 21:29S 24°05' W 046°22'0 0.0
2018-May-15 20:50S 24°05' W 046°22'0 0.0
2018-May-15 20:29S 24°05' W 046°22'0 0.0
2018-May-15 19:41S 24°05' W 046°22'0 0.2
2018-May-15 19:29S 24°05' W 046°22'0 0.0
2018-May-15 18:59S 24°05' W 046°22'0 0.1
2018-May-15 18:29S 24°05' W 046°22'0 0.0
2018-May-15 17:59S 24°05' W 046°22'0 0.0
2018-May-15 17:14S 24°05' W 046°22'0 0.1
2018-May-15 16:59S 24°05' W 046°22'0 0.0
2018-May-15 16:29S 24°05' W 046°22'0 0.1
2018-May-15 15:59S 24°05' W 046°22'0 0.0
2018-May-15 15:29S 24°05' W 046°22'0 0.0
2018-May-15 14:53S 24°05' W 046°22'0 0.1
2018-May-15 14:29S 24°05' W 046°22'0 0.0
2018-May-15 13:59S 24°05' W 046°22'0 0.0
2018-May-15 13:29S 24°05' W 046°22'0 0.0
2018-May-15 12:59S 24°05' W 046°22'0 0.0
2018-May-15 12:29S 24°05' W 046°22'0 0.0
2018-May-15 11:59S 24°05' W 046°22'0 0.0
2018-May-15 11:29S 24°05' W 046°22'0 0.0
2018-May-15 10:59S 24°05' W 046°22'0 0.1
2018-May-15 10:23S 24°05' W 046°22'0 0.0
2018-May-15 09:59S 24°05' W 046°22'0 0.0
2018-May-15 09:29S 24°05' W 046°22'0 0.1
2018-May-15 08:56S 24°05' W 046°22'0 0.0
2018-May-15 08:29S 24°05' W 046°22'0 0.0
2018-May-15 07:53S 24°05' W 046°22'0 0.0
2018-May-15 07:29S 24°05' W 046°22'0 0.0
2018-May-15 06:53S 24°05' W 046°22'0 0.1
2018-May-15 06:29S 24°05' W 046°22'0 0.0
2018-May-15 05:59S 24°05' W 046°22'0 0.0
2018-May-15 05:29S 24°05' W 046°22'0 0.0
2018-May-15 04:59S 24°05' W 046°22'0 0.0
2018-May-15 04:29S 24°05' W 046°22'0 0.0
2018-May-15 03:59S 24°05' W 046°22'0 0.0
2018-May-15 03:29S 24°05' W 046°22'0 0.0
2018-May-15 02:59S 24°05' W 046°22'0 0.0
2018-May-15 02:29S 24°05' W 046°22'0 0.0
2018-May-15 01:53S 24°05' W 046°22'0 0.1
2018-May-15 01:29S 24°05' W 046°22'0 0.0
2018-May-15 00:59S 24°05' W 046°22'0 0.1
2018-May-15 00:05S 24°05' W 046°22'0 0.1
2018-May-14 23:59S 24°05' W 046°22'0 0.0
2018-May-14 23:05S 24°05' W 046°22'0 0.0
2018-May-14 22:47S 24°05' W 046°22'0 0.0
2018-May-14 21:35S 24°05' W 046°22'0 0.1
2018-May-14 21:23S 24°05' W 046°22'0 0.0
2018-May-14 20:59S 24°05' W 046°22'0 0.0
2018-May-14 20:23S 24°05' W 046°22'0 0.0
2018-May-14 19:53S 24°05' W 046°22'0 0.0
2018-May-14 19:29S 24°05' W 046°22'0 0.0
2018-May-14 17:59S 24°05' W 046°22'0 0.0
2018-May-14 17:17S 24°05' W 046°22'0 0.1
2018-May-14 16:50S 24°05' W 046°22'0 0.0
2018-May-14 15:32S 24°05' W 046°22'0 0.0
2018-May-14 14:59S 24°05' W 046°22'0 0.0
2018-May-12 23:47S 24°05' W 046°22'0 0.0
2018-May-12 23:14S 24°05' W 046°22'0 0.0
2018-May-12 22:59S 24°05' W 046°22'0 0.0
2018-May-12 22:29S 24°05' W 046°22'0 0.1
2018-May-12 21:59S 24°05' W 046°22'0 0.1
2018-May-12 21:23S 24°05' W 046°22'0 0.0
2018-May-12 20:59S 24°05' W 046°22'0 0.0
2018-May-12 20:29S 24°05' W 046°22'0 0.0
2018-May-12 19:59S 24°05' W 046°22'0 0.0
2018-May-12 19:29S 24°05' W 046°22'0 0.0
2018-May-12 18:59S 24°05' W 046°22'0 0.0
2018-May-12 18:29S 24°05' W 046°22'0 0.0
2018-May-12 17:53S 24°05' W 046°22'0 0.0
2018-May-12 17:29S 24°05' W 046°22'0 0.0
2018-May-12 16:59S 24°05' W 046°22'0 0.0
2018-May-12 16:29S 24°05' W 046°22'0 0.0
2018-May-12 15:59S 24°05' W 046°22'0 0.0
2018-May-12 15:23S 24°05' W 046°22'0 0.1
2018-May-12 14:59S 24°05' W 046°22'0 0.0
2018-May-12 14:29S 24°05' W 046°22'0 0.1
2018-May-12 13:59S 24°05' W 046°22'0 0.0
2018-May-12 13:29S 24°05' W 046°22'0 0.0
2018-May-12 12:59S 24°05' W 046°22'0 0.2
2018-May-12 12:29S 24°05' W 046°22'0 0.0
2018-May-12 11:59S 24°05' W 046°22'0 0.0
2018-May-12 11:29S 24°05' W 046°22'0 0.1
2018-May-12 10:59S 24°05' W 046°22'0 0.0
2018-May-12 10:26S 24°05' W 046°22'0 0.1
2018-May-12 09:59S 24°05' W 046°22'0 0.2
2018-May-12 09:29S 24°05' W 046°22'0 0.1
2018-May-12 08:59S 24°05' W 046°22'0 0.1
2018-May-12 08:29S 24°05' W 046°22'0 0.0
2018-May-12 07:59S 24°05' W 046°22'0 0.0
2018-May-12 07:29S 24°05' W 046°22'0 0.0
2018-May-12 06:59S 24°05' W 046°22'0 0.1
2018-May-12 06:23S 24°05' W 046°22'0 0.0
2018-May-12 05:59S 24°05' W 046°22'0 0.1
2018-May-12 05:29S 24°05' W 046°22'0 0.0
2018-May-12 04:59S 24°05' W 046°22'0 0.0
2018-May-12 04:29S 24°05' W 046°22'0 0.0
2018-May-12 03:56S 24°05' W 046°22'0 0.1
2018-May-12 03:23S 24°05' W 046°22'0 0.1
2018-May-12 02:56S 24°05' W 046°22'0 0.0
2018-May-12 02:29S 24°05' W 046°22'0 0.0
2018-May-12 01:59S 24°05' W 046°22'0 0.0
2018-May-12 01:29S 24°05' W 046°22'0 0.0
2018-May-12 00:41S 24°05' W 046°22'0 0.0
2018-May-12 00:29S 24°05' W 046°22'0 0.0
2018-May-11 23:59S 24°05' W 046°22'0 0.0
2018-May-11 23:29S 24°05' W 046°22'0 0.0
2018-May-11 22:59S 24°05' W 046°22'0 0.1
2018-May-11 22:29S 24°05' W 046°22'0 0.0
2018-May-11 21:59S 24°05' W 046°22'0 0.0
2018-May-11 21:23S 24°05' W 046°22'0 0.0
2018-May-11 20:59S 24°05' W 046°22'0 0.0
2018-May-11 20:29S 24°05' W 046°22'0 0.0
2018-May-11 19:47S 24°05' W 046°22'0 0.0
2018-May-11 19:29S 24°05' W 046°22'0 0.0
2018-May-11 19:00S 24°05' W 046°22'1 2.0
2018-May-11 18:30S 24°05' W 046°23'3 6.0
2018-May-11 18:00S 24°08' W 046°23'4 7.1
2018-May-11 17:30S 24°12' W 046°22'3 5.9
2018-May-11 17:00S 24°14' W 046°21'3 6.4
2018-May-11 16:30S 24°15' W 046°17'4 7.5
2018-May-11 16:00S 24°15' W 046°13'4 7.5
2018-May-11 15:30S 24°15' W 046°09'4 7.7
2018-May-11 15:00S 24°16' W 046°05'4 7.7
2018-May-11 14:30S 24°17' W 046°01'4 7.8
2018-May-11 14:00S 24°17' W 045°56'4 7.8
2018-May-11 13:30S 24°18' W 045°52'5 8.9
2018-May-11 13:00S 24°19' W 045°47'715.0
2018-May-11 12:30S 24°20' W 045°39'714.8
2018-May-11 12:00S 24°22' W 045°31'1412.8
2018-May-11 10:53S 24°25' W 045°16'511.8
2018-May-11 10:30S 24°26' W 045°11'611.7
2018-May-11 10:00S 24°27' W 045°05'611.7
2018-May-11 09:30S 24°28' W 044°58'611.6
2018-May-11 09:00S 24°29' W 044°52'  
Track history (hours):
 
Tides and Currents Weather Stations Pressure Air Temp Water Temp Dewpoint Dewpoint Depression Visibility Wind Speed Wind Dir Waves Ship Positions

Sea Victory

Last reported at 2018-May-18 10:41 UTC. Time now 2018-Jun-20 22:55 UTC.
Position S 24°17' W 046°01'.
Warning: this ship's position is 33 days out of date.

Length 225 m; draft 13.1 m.

Type: Cargo ship. MMSI: 370090000.

Date/timePositionNaut miles runAvg speedWind from/ knotsBaromVisibWave heightAir tempDewpointWater temp
2018-May-18 10:41S 24°17' W 046°01'211.4
2018-May-18 10:29S 24°16' W 046°03'611.4
2018-May-18 10:00S 24°15' W 046°09'611.3
2018-May-18 09:30S 24°15' W 046°16'5 9.5
2018-May-18 09:01S 24°14' W 046°21'510.8
2018-May-18 08:31S 24°09' W 046°22'5 9.3
2018-May-18 08:00S 24°05' W 046°22'4 8.4
2018-May-18 07:29S 24°00' W 046°20'  
2018-May-16 03:19S 23°59' W 046°17'1 2.7
2018-May-16 02:55S 23°60' W 046°18'3 6.8
2018-May-16 02:30S 24°01' W 046°21'3 5.1
2018-May-16 02:00S 24°03' W 046°22'2 3.5
2018-May-16 01:30S 24°03' W 046°21'2 4.9
2018-May-16 01:00S 24°05' W 046°22'0 0.3
2018-May-16 00:26S 24°05' W 046°22'0 0.0
2018-May-15 23:59S 24°05' W 046°22'0 0.0
2018-May-15 23:29S 24°05' W 046°22'0 0.0
2018-May-15 22:59S 24°05' W 046°22'0 0.0
2018-May-15 22:29S 24°05' W 046°22'0 0.0
2018-May-15 21:59S 24°05' W 046°22'0 0.0
2018-May-15 21:29S 24°05' W 046°22'0 0.0
2018-May-15 20:50S 24°05' W 046°22'0 0.0
2018-May-15 20:29S 24°05' W 046°22'0 0.0
2018-May-15 19:41S 24°05' W 046°22'0 0.2
2018-May-15 19:29S 24°05' W 046°22'0 0.0
2018-May-15 18:59S 24°05' W 046°22'0 0.1
2018-May-15 18:29S 24°05' W 046°22'0 0.0
2018-May-15 17:59S 24°05' W 046°22'0 0.0
2018-May-15 17:14S 24°05' W 046°22'0 0.1
2018-May-15 16:59S 24°05' W 046°22'0 0.0
2018-May-15 16:29S 24°05' W 046°22'0 0.1
2018-May-15 15:59S 24°05' W 046°22'0 0.0
2018-May-15 15:29S 24°05' W 046°22'0 0.0
2018-May-15 14:53S 24°05' W 046°22'0 0.1
2018-May-15 14:29S 24°05' W 046°22'0 0.0
2018-May-15 13:59S 24°05' W 046°22'0 0.0
2018-May-15 13:29S 24°05' W 046°22'0 0.0
2018-May-15 12:59S 24°05' W 046°22'0 0.0
2018-May-15 12:29S 24°05' W 046°22'0 0.0
2018-May-15 11:59S 24°05' W 046°22'0 0.0
2018-May-15 11:29S 24°05' W 046°22'0 0.0
2018-May-15 10:59S 24°05' W 046°22'0 0.1
2018-May-15 10:23S 24°05' W 046°22'0 0.0
2018-May-15 09:59S 24°05' W 046°22'0 0.0
2018-May-15 09:29S 24°05' W 046°22'0 0.1
2018-May-15 08:56S 24°05' W 046°22'0 0.0
2018-May-15 08:29S 24°05' W 046°22'0 0.0
2018-May-15 07:53S 24°05' W 046°22'0 0.0
2018-May-15 07:29S 24°05' W 046°22'0 0.0
2018-May-15 06:53S 24°05' W 046°22'0 0.1
2018-May-15 06:29S 24°05' W 046°22'0 0.0
2018-May-15 05:59S 24°05' W 046°22'0 0.0
2018-May-15 05:29S 24°05' W 046°22'0 0.0
2018-May-15 04:59S 24°05' W 046°22'0 0.0
2018-May-15 04:29S 24°05' W 046°22'0 0.0
2018-May-15 03:59S 24°05' W 046°22'0 0.0
2018-May-15 03:29S 24°05' W 046°22'0 0.0
2018-May-15 02:59S 24°05' W 046°22'0 0.0
2018-May-15 02:29S 24°05' W 046°22'0 0.0
2018-May-15 01:53S 24°05' W 046°22'0 0.1
2018-May-15 01:29S 24°05' W 046°22'0 0.0
2018-May-15 00:59S 24°05' W 046°22'0 0.1
2018-May-15 00:05S 24°05' W 046°22'0 0.1
2018-May-14 23:59S 24°05' W 046°22'0 0.0
2018-May-14 23:05S 24°05' W 046°22'0 0.0
2018-May-14 22:47S 24°05' W 046°22'0 0.0
2018-May-14 21:35S 24°05' W 046°22'0 0.1
2018-May-14 21:23S 24°05' W 046°22'0 0.0
2018-May-14 20:59S 24°05' W 046°22'0 0.0
2018-May-14 20:23S 24°05' W 046°22'0 0.0
2018-May-14 19:53S 24°05' W 046°22'0 0.0
2018-May-14 19:29S 24°05' W 046°22'0 0.0
2018-May-14 17:59S 24°05' W 046°22'0 0.0
2018-May-14 17:17S 24°05' W 046°22'0 0.1
2018-May-14 16:50S 24°05' W 046°22'0 0.0
2018-May-14 15:32S 24°05' W 046°22'0 0.0
2018-May-14 14:59S 24°05' W 046°22'0 0.0
2018-May-12 23:47S 24°05' W 046°22'0 0.0
2018-May-12 23:14S 24°05' W 046°22'0 0.0
2018-May-12 22:59S 24°05' W 046°22'0 0.0
2018-May-12 22:29S 24°05' W 046°22'0 0.1
2018-May-12 21:59S 24°05' W 046°22'0 0.1
2018-May-12 21:23S 24°05' W 046°22'0 0.0
2018-May-12 20:59S 24°05' W 046°22'0 0.0
2018-May-12 20:29S 24°05' W 046°22'0 0.0
2018-May-12 19:59S 24°05' W 046°22'0 0.0
2018-May-12 19:29S 24°05' W 046°22'0 0.0
2018-May-12 18:59S 24°05' W 046°22'0 0.0
2018-May-12 18:29S 24°05' W 046°22'0 0.0
2018-May-12 17:53S 24°05' W 046°22'0 0.0
2018-May-12 17:29S 24°05' W 046°22'0 0.0
2018-May-12 16:59S 24°05' W 046°22'0 0.0
2018-May-12 16:29S 24°05' W 046°22'0 0.0
2018-May-12 15:59S 24°05' W 046°22'0 0.0
2018-May-12 15:23S 24°05' W 046°22'0 0.1
2018-May-12 14:59S 24°05' W 046°22'0 0.0
2018-May-12 14:29S 24°05' W 046°22'0 0.1
2018-May-12 13:59S 24°05' W 046°22'0 0.0
2018-May-12 13:29S 24°05' W 046°22'0 0.0
2018-May-12 12:59S 24°05' W 046°22'0 0.2
2018-May-12 12:29S 24°05' W 046°22'0 0.0
2018-May-12 11:59S 24°05' W 046°22'0 0.0
2018-May-12 11:29S 24°05' W 046°22'0 0.1
2018-May-12 10:59S 24°05' W 046°22'0 0.0
2018-May-12 10:26S 24°05' W 046°22'0 0.1
2018-May-12 09:59S 24°05' W 046°22'0 0.2
2018-May-12 09:29S 24°05' W 046°22'0 0.1
2018-May-12 08:59S 24°05' W 046°22'0 0.1
2018-May-12 08:29S 24°05' W 046°22'0 0.0
2018-May-12 07:59S 24°05' W 046°22'0 0.0
2018-May-12 07:29S 24°05' W 046°22'0 0.0
2018-May-12 06:59S 24°05' W 046°22'0 0.1
2018-May-12 06:23S 24°05' W 046°22'0 0.0
2018-May-12 05:59S 24°05' W 046°22'0 0.1
2018-May-12 05:29S 24°05' W 046°22'0 0.0
2018-May-12 04:59S 24°05' W 046°22'0 0.0
2018-May-12 04:29S 24°05' W 046°22'0 0.0
2018-May-12 03:56S 24°05' W 046°22'0 0.1
2018-May-12 03:23S 24°05' W 046°22'0 0.1
2018-May-12 02:56S 24°05' W 046°22'0 0.0
2018-May-12 02:29S 24°05' W 046°22'0 0.0
2018-May-12 01:59S 24°05' W 046°22'0 0.0
2018-May-12 01:29S 24°05' W 046°22'0 0.0
2018-May-12 00:41S 24°05' W 046°22'0 0.0
2018-May-12 00:29S 24°05' W 046°22'0 0.0
2018-May-11 23:59S 24°05' W 046°22'0 0.0
2018-May-11 23:29S 24°05' W 046°22'0 0.0
2018-May-11 22:59S 24°05' W 046°22'0 0.1
2018-May-11 22:29S 24°05' W 046°22'0 0.0
2018-May-11 21:59S 24°05' W 046°22'0 0.0
2018-May-11 21:23S 24°05' W 046°22'0 0.0
2018-May-11 20:59S 24°05' W 046°22'0 0.0
2018-May-11 20:29S 24°05' W 046°22'0 0.0
2018-May-11 19:47S 24°05' W 046°22'0 0.0
2018-May-11 19:29S 24°05' W 046°22'0 0.0
2018-May-11 19:00S 24°05' W 046°22'1 2.0
2018-May-11 18:30S 24°05' W 046°23'3 6.0
2018-May-11 18:00S 24°08' W 046°23'4 7.1
2018-May-11 17:30S 24°12' W 046°22'3 5.9
2018-May-11 17:00S 24°14' W 046°21'3 6.4
2018-May-11 16:30S 24°15' W 046°17'4 7.5
2018-May-11 16:00S 24°15' W 046°13'4 7.5
2018-May-11 15:30S 24°15' W 046°09'4 7.7
2018-May-11 15:00S 24°16' W 046°05'4 7.7
2018-May-11 14:30S 24°17' W 046°01'4 7.8
2018-May-11 14:00S 24°17' W 045°56'4 7.8
2018-May-11 13:30S 24°18' W 045°52'5 8.9
2018-May-11 13:00S 24°19' W 045°47'715.0
2018-May-11 12:30S 24°20' W 045°39'714.8
2018-May-11 12:00S 24°22' W 045°31'1412.8
2018-May-11 10:53S 24°25' W 045°16'511.8
2018-May-11 10:30S 24°26' W 045°11'611.7
2018-May-11 10:00S 24°27' W 045°05'611.7
2018-May-11 09:30S 24°28' W 044°58'611.6
2018-May-11 09:00S 24°29' W 044°52'  

Dump ship's entire track history